createdAt,value
2019-02-16T00:02:42.929Z,5.41
2019-02-16T00:06:48.197Z,5.43
2019-02-16T00:10:53.365Z,5.22
2019-02-16T00:14:58.541Z,5.24
2019-02-16T00:19:03.666Z,5.17
2019-02-16T00:23:08.827Z,5.12
2019-02-16T00:27:13.880Z,5.13
2019-02-16T00:31:19.145Z,4.62
2019-02-16T00:35:24.291Z,4.69
2019-02-16T00:39:29.441Z,4.59
2019-02-16T00:43:34.852Z,4.11
2019-02-16T00:47:39.922Z,4.41
2019-02-16T00:51:45.192Z,4.40
2019-02-16T00:55:50.317Z,4.20
2019-02-16T00:59:55.765Z,4.45
2019-02-16T01:04:00.922Z,4.38
2019-02-16T01:08:06.141Z,4.36
2019-02-16T01:12:11.248Z,4.24
2019-02-16T01:16:16.375Z,4.15
2019-02-16T01:20:21.531Z,4.35
2019-02-16T01:24:26.627Z,4.31
2019-02-16T01:28:32.679Z,4.40
2019-02-16T01:32:37.770Z,4.44
2019-02-16T01:36:42.948Z,4.32
2019-02-16T01:40:48.065Z,4.20
2019-02-16T01:44:53.254Z,4.28
2019-02-16T01:48:58.397Z,4.29
2019-02-16T01:53:03.528Z,4.06
2019-02-16T01:57:08.642Z,4.12
2019-02-16T02:01:13.835Z,3.94
2019-02-16T02:05:18.915Z,4.01
2019-02-16T02:09:24.256Z,3.93
2019-02-16T02:13:30.376Z,3.94
2019-02-16T02:17:35.466Z,3.62
2019-02-16T02:21:41.387Z,3.78
2019-02-16T02:25:46.652Z,3.80
2019-02-16T02:29:51.837Z,3.71
2019-02-16T02:33:56.815Z,3.78
2019-02-16T02:38:01.925Z,3.65
2019-02-16T02:42:07.091Z,3.69
2019-02-16T02:46:12.247Z,3.60
2019-02-16T02:50:17.343Z,3.58
2019-02-16T02:54:23.470Z,3.57
2019-02-16T02:58:28.568Z,3.56
2019-02-16T03:02:34.658Z,3.65
2019-02-16T03:06:39.804Z,3.57
2019-02-16T03:10:44.965Z,3.30
2019-02-16T03:14:50.102Z,3.14
2019-02-16T03:18:55.216Z,2.90
2019-02-16T03:23:17.246Z,3.23
2019-02-16T03:28:02.298Z,3.30
2019-02-16T03:32:52.852Z,3.52
2019-02-16T03:37:54.053Z,3.05
2019-02-16T03:41:59.187Z,3.15
2019-02-16T03:46:04.666Z,3.06
2019-02-16T03:50:09.760Z,2.70
2019-02-16T03:54:14.943Z,2.79
2019-02-16T03:58:20.120Z,2.56
2019-02-16T04:02:25.240Z,2.60
2019-02-16T04:06:30.656Z,2.53
2019-02-16T04:10:35.878Z,2.86
2019-02-16T04:14:40.980Z,2.49
2019-02-16T04:18:46.164Z,2.41
2019-02-16T04:22:51.304Z,2.56
2019-02-16T04:26:56.380Z,2.77
2019-02-16T04:31:02.028Z,2.85
2019-02-16T04:35:10.067Z,2.41
2019-02-16T04:39:15.202Z,2.10
2019-02-16T04:43:20.353Z,2.31
2019-02-16T04:47:25.506Z,2.05
2019-02-16T04:51:30.585Z,2.05
2019-02-16T04:55:35.660Z,2.20
2019-02-16T04:59:40.828Z,2.08
2019-02-16T05:03:45.908Z,2.07
2019-02-16T05:07:50.997Z,1.97
2019-02-16T05:11:56.200Z,1.92
2019-02-16T05:16:01.317Z,1.95
2019-02-16T05:20:06.625Z,2.05
2019-02-16T05:24:12.756Z,1.79
2019-02-16T05:28:17.819Z,1.81
2019-02-16T05:32:22.906Z,1.82
2019-02-16T05:36:27.966Z,1.63
2019-02-16T05:40:33.172Z,1.95
2019-02-16T05:44:42.680Z,1.95
2019-02-16T05:48:48.756Z,1.64
2019-02-16T05:52:54.721Z,1.68
2019-02-16T05:56:59.963Z,1.80
2019-02-16T06:01:05.171Z,1.85
2019-02-16T06:05:10.199Z,1.58
2019-02-16T06:09:15.273Z,1.68
2019-02-16T06:13:20.472Z,1.69
2019-02-16T06:17:25.619Z,1.83
2019-02-16T06:21:30.708Z,1.79
2019-02-16T06:25:35.813Z,1.56
2019-02-16T06:29:41.991Z,1.22
2019-02-16T06:33:47.070Z,1.35
2019-02-16T06:37:52.144Z,1.23
2019-02-16T06:41:57.320Z,1.54
2019-02-16T06:46:02.511Z,1.49
2019-02-16T06:50:07.635Z,1.74
2019-02-16T06:54:12.700Z,1.63
2019-02-16T06:58:17.829Z,1.59
2019-02-16T07:02:23.798Z,1.81
2019-02-16T07:06:28.970Z,2.11
2019-02-16T07:10:34.063Z,2.18
2019-02-16T07:14:39.236Z,1.57
2019-02-16T07:19:12.609Z,1.73
2019-02-16T07:23:22.586Z,1.61
2019-02-16T07:27:24.580Z,1.99
2019-02-16T07:31:29.734Z,1.95
2019-02-16T07:35:34.904Z,2.11
2019-02-16T07:39:40.104Z,2.50
2019-02-16T07:44:03.340Z,2.63
2019-02-16T07:48:39.228Z,2.80
2019-02-16T07:53:06.642Z,4.29
2019-02-16T07:58:17.541Z,4.40
2019-02-16T08:11:24.049Z,4.85
2019-02-16T08:16:00.681Z,5.12
2019-02-16T08:20:39.763Z,5.36
2019-02-16T08:25:06.722Z,5.84
2019-02-16T08:29:17.369Z,6.90
2019-02-16T08:33:39.955Z,6.57
2019-02-16T08:38:05.915Z,7.04
2019-02-16T08:42:23.419Z,7.81
2019-02-16T08:46:47.831Z,7.78
2019-02-16T08:51:24.131Z,8.44
2019-02-16T08:55:51.053Z,8.70
2019-02-16T09:00:22.281Z,8.51
2019-02-16T09:04:44.868Z,8.61
2019-02-16T09:09:07.390Z,8.80
2019-02-16T09:13:29.905Z,9.48
2019-02-16T09:17:52.774Z,10.14
2019-02-16T09:22:09.698Z,9.41
2019-02-16T09:26:33.100Z,9.68
2019-02-16T09:30:48.552Z,9.48
2019-02-16T09:35:08.974Z,9.82
2019-02-16T09:39:25.909Z,10.63
2019-02-16T09:43:48.497Z,11.03
2019-02-16T09:48:12.620Z,11.25
2019-02-16T09:52:40.205Z,10.56
2019-02-16T09:57:04.972Z,11.30
2019-02-16T10:01:19.691Z,12.63
2019-02-16T10:05:41.502Z,12.11
2019-02-16T10:10:10.750Z,11.82
2019-02-16T10:14:39.198Z,12.74
2019-02-16T10:19:12.292Z,13.42
2019-02-16T10:23:33.245Z,13.28
2019-02-16T10:27:50.728Z,13.02
2019-02-16T10:32:17.682Z,12.70
2019-02-16T10:36:29.483Z,12.71
2019-02-16T10:40:56.638Z,12.85
2019-02-16T10:45:19.672Z,13.30
2019-02-16T10:49:30.784Z,13.79
2019-02-16T10:54:09.817Z,13.88
2019-02-16T10:58:32.406Z,13.98
2019-02-16T11:03:08.583Z,14.61
2019-02-16T11:07:19.355Z,14.35
2019-02-16T11:11:37.760Z,14.27
2019-02-16T11:16:01.821Z,14.45
2019-02-16T11:20:20.774Z,14.39
2019-02-16T11:24:43.307Z,14.13
2019-02-16T11:28:59.210Z,13.96
2019-02-16T11:33:26.041Z,14.56
2019-02-16T11:37:50.168Z,14.12
2019-02-16T11:42:17.179Z,14.76
2019-02-16T11:46:59.573Z,14.70
2019-02-16T11:51:20.453Z,15.52
2019-02-16T11:55:32.644Z,15.97
2019-02-16T12:00:05.871Z,16.47
2019-02-16T12:04:34.323Z,15.89
2019-02-16T12:08:58.524Z,16.45
2019-02-16T12:13:10.812Z,16.40
2019-02-16T12:17:23.823Z,16.20
2019-02-16T12:21:42.760Z,16.03
2019-02-16T12:26:14.600Z,15.94
2019-02-16T12:30:37.115Z,15.56
2019-02-16T12:35:02.151Z,15.56
2019-02-16T12:39:35.320Z,15.90
2019-02-16T12:43:53.907Z,16.68
2019-02-16T12:48:07.538Z,16.15
2019-02-16T12:52:29.925Z,15.99
2019-02-16T12:56:54.039Z,16.61
2019-02-16T13:01:19.013Z,16.69
2019-02-16T13:05:49.047Z,16.67
2019-02-16T13:10:19.373Z,16.65
2019-02-16T13:14:38.707Z,16.11
2019-02-16T13:19:08.747Z,16.36
2019-02-16T13:23:30.750Z,16.45
2019-02-16T13:27:44.761Z,17.15
2019-02-16T13:31:59.292Z,17.48
2019-02-16T13:36:29.960Z,17.24
2019-02-16T13:41:00.239Z,17.05
2019-02-16T13:45:12.431Z,16.88
2019-02-16T13:49:22.769Z,17.68
2019-02-16T13:53:41.809Z,17.54
2019-02-16T13:58:05.426Z,17.66
2019-02-16T14:02:29.648Z,18.60
2019-02-16T14:06:56.487Z,19.53
2019-02-16T14:11:22.615Z,19.76
2019-02-16T14:15:45.800Z,20.05
2019-02-16T14:19:50.918Z,20.07
2019-02-16T14:23:56.400Z,19.11
2019-02-16T14:28:01.552Z,18.62
2019-02-16T14:32:06.750Z,19.15
2019-02-16T14:36:12.001Z,19.64
2019-02-16T14:40:17.171Z,19.10
2019-02-16T14:44:22.393Z,18.06
2019-02-16T14:48:27.582Z,20.62
2019-02-16T14:52:32.794Z,20.08
2019-02-16T14:56:37.955Z,20.97
2019-02-16T15:00:43.228Z,20.33
2019-02-16T15:04:48.372Z,19.62
2019-02-16T15:08:53.816Z,20.24
2019-02-16T15:12:59.016Z,19.71
2019-02-16T15:17:04.088Z,19.38
2019-02-16T15:21:09.628Z,19.75
2019-02-16T15:25:14.739Z,20.11
2019-02-16T15:29:19.991Z,19.05
2019-02-16T15:33:25.104Z,19.10
2019-02-16T15:37:30.262Z,20.14
2019-02-16T15:41:35.461Z,19.39
2019-02-16T15:45:43.689Z,18.86
2019-02-16T15:49:48.812Z,18.62
2019-02-16T15:53:54.254Z,18.77
2019-02-16T15:57:59.425Z,17.96
2019-02-16T16:02:04.574Z,18.73
2019-02-16T16:06:09.846Z,18.18
2019-02-16T16:10:28.671Z,17.19
2019-02-16T16:14:51.406Z,16.72
2019-02-16T16:19:17.238Z,16.17
2019-02-16T16:23:41.430Z,16.11
2019-02-16T16:28:08.680Z,15.93
2019-02-16T16:32:41.902Z,15.39
2019-02-16T16:37:00.297Z,15.23
2019-02-16T16:41:17.656Z,14.70
2019-02-16T16:45:41.752Z,14.50
2019-02-16T16:50:04.561Z,14.24
2019-02-16T16:54:15.870Z,14.14
2019-02-16T16:58:36.632Z,14.08
2019-02-16T17:02:56.772Z,13.91
2019-02-16T17:07:29.809Z,13.54
2019-02-16T17:11:56.565Z,13.37
2019-02-16T17:16:10.968Z,13.25
2019-02-16T17:20:33.559Z,13.04
2019-02-16T17:25:01.850Z,12.97
2019-02-16T17:29:16.559Z,12.60
2019-02-16T17:33:27.534Z,12.07
2019-02-16T17:37:38.593Z,12.06
2019-02-16T17:42:03.330Z,12.06
2019-02-16T17:46:30.077Z,11.64
2019-02-16T17:50:59.867Z,10.90
2019-02-16T17:55:14.684Z,10.97
2019-02-16T17:59:41.857Z,10.56
2019-02-16T18:04:14.975Z,9.95
2019-02-16T18:08:34.361Z,9.86
2019-02-16T18:12:57.481Z,10.64
2019-02-16T18:17:21.225Z,9.58
2019-02-16T18:21:43.980Z,9.17
2019-02-16T18:26:00.547Z,9.17
2019-02-16T18:30:42.852Z,8.66
2019-02-16T18:34:58.791Z,9.17
2019-02-16T18:39:26.040Z,8.54
2019-02-16T18:43:48.482Z,8.48
2019-02-16T18:48:07.575Z,7.88
2019-02-16T18:52:43.595Z,7.77
2019-02-16T18:57:10.606Z,7.62
2019-02-16T19:01:26.249Z,7.67
2019-02-16T19:05:59.606Z,8.55
2019-02-16T19:10:16.368Z,8.20
2019-02-16T19:14:31.065Z,8.20
2019-02-16T19:19:07.282Z,8.10
2019-02-16T19:23:32.490Z,7.37
2019-02-16T19:28:00.348Z,7.43
2019-02-16T19:32:24.027Z,6.87
2019-02-16T19:36:39.333Z,6.63
2019-02-16T19:41:06.587Z,6.68
2019-02-16T19:45:31.050Z,6.54
2019-02-16T19:50:01.235Z,6.46
2019-02-16T19:54:16.650Z,6.18
2019-02-16T19:58:39.205Z,6.28
2019-02-16T20:03:01.061Z,6.18
2019-02-16T20:07:25.423Z,6.30
2019-02-16T20:11:55.603Z,6.85
2019-02-16T20:16:27.559Z,6.16
2019-02-16T20:20:50.249Z,6.80
2019-02-16T20:25:20.315Z,6.72
2019-02-16T20:29:44.493Z,6.10
2019-02-16T20:34:08.594Z,6.05
2019-02-16T20:38:20.008Z,6.14
2019-02-16T20:42:49.284Z,5.75
2019-02-16T20:47:01.851Z,5.72
2019-02-16T20:51:28.182Z,5.70
2019-02-16T20:55:55.065Z,5.49
2019-02-16T21:00:26.004Z,5.02
2019-02-16T21:04:45.228Z,5.28
2019-02-16T21:09:08.064Z,5.27
2019-02-16T21:13:18.466Z,5.72
2019-02-16T21:17:45.650Z,5.47
2019-02-16T21:22:08.865Z,6.04
2019-02-16T21:26:37.149Z,6.00
2019-02-16T21:30:44.879Z,5.88
2019-02-16T21:35:07.623Z,5.15
2019-02-16T21:39:40.893Z,4.91
2019-02-16T21:44:07.824Z,4.49
2019-02-16T21:48:30.523Z,5.17
2019-02-16T21:52:50.397Z,4.69
2019-02-16T21:57:21.323Z,4.52
2019-02-16T22:01:43.844Z,3.88
2019-02-16T22:06:06.417Z,4.59
2019-02-16T22:10:26.249Z,4.85
2019-02-16T22:14:31.389Z,4.52
2019-02-16T22:18:36.461Z,5.13
2019-02-16T22:22:41.577Z,5.19
2019-02-16T22:26:46.667Z,5.16
2019-02-16T22:30:51.800Z,5.00
2019-02-16T22:34:56.853Z,4.76
2019-02-16T22:39:02.020Z,4.73
2019-02-16T22:43:08.182Z,4.36
2019-02-16T22:47:13.367Z,4.32
2019-02-16T22:51:19.749Z,4.27
2019-02-16T22:55:24.900Z,4.07
2019-02-16T22:59:29.985Z,4.32
2019-02-16T23:03:35.384Z,4.20
2019-02-16T23:07:40.497Z,3.93
2019-02-16T23:11:45.620Z,4.00
2019-02-16T23:15:50.791Z,4.38
2019-02-16T23:19:55.954Z,3.91
2019-02-16T23:24:01.195Z,3.77
2019-02-16T23:28:06.279Z,3.99
2019-02-16T23:32:12.420Z,3.48
2019-02-16T23:36:17.847Z,3.24
2019-02-16T23:40:23.016Z,3.05
2019-02-16T23:44:28.173Z,3.56
2019-02-16T23:48:33.340Z,3.30
2019-02-16T23:52:38.432Z,3.23
2019-02-16T23:56:43.582Z,3.46
